Time;durP1;ratioP1;P1;durP2;ratioP2;P2;SDS_P1;SDS_P2;PMS_P1;PMS_P2;Temp;Humidity;BMP_temperature;BMP_pressure;BME280_temperature;BME280_humidity;BME280_pressure;Samples;Min_cycle;Max_cycle;Signal;HPM_P1;HPM_P2
2022/09/28 00:00:49;;;;;;;1.83;1.40;;;;;;;24.95;38.53;101319.56;4191173;28;20094;-61
2022/09/28 00:02:51;;;;;;;2.00;1.20;;;;;;;24.94;38.23;101326.31;4184554;28;20083;-61
2022/09/28 00:04:52;;;;;;;2.85;1.33;;;;;;;24.93;38.36;101330.25;4197098;28;20041;-61
2022/09/28 00:06:53;;;;;;;2.65;1.15;;;;;;;24.94;38.31;101348.69;4198211;28;20048;-61
2022/09/28 00:08:55;;;;;;;2.00;1.10;;;;;;;24.93;38.10;101335.84;4186890;28;20483;-60
2022/09/28 00:10:57;;;;;;;1.40;1.30;;;;;;;24.84;38.35;101327.28;4186640;28;20098;-61
2022/09/28 00:13:00;;;;;;;2.38;1.13;;;;;;;24.93;38.05;101341.44;4187363;28;20037;-62
2022/09/28 00:15:02;;;;;;;1.98;1.40;;;;;;;24.87;38.05;101329.44;4192100;28;20833;-62
2022/09/28 00:17:03;;;;;;;3.40;1.23;;;;;;;24.94;38.13;101337.50;4189002;28;20036;-62
2022/09/28 00:19:05;;;;;;;2.70;1.38;;;;;;;24.94;37.68;101348.69;4181555;28;20095;-62
2022/09/28 00:21:20;;;;;;;3.38;1.30;;;;;;;24.91;37.93;101344.53;4180952;28;20473;-62
2022/09/28 00:23:21;;;;;;;1.77;1.10;;;;;;;24.94;37.55;101345.91;4183665;28;20045;-62
2022/09/28 00:25:23;;;;;;;2.50;1.27;;;;;;;24.94;37.65;101341.13;4182741;28;20037;-62
2022/09/28 00:27:25;;;;;;;3.65;1.48;;;;;;;24.90;37.01;101342.03;4195896;28;20090;-62
2022/09/28 00:29:35;;;;;;;3.20;1.38;;;;;;;24.92;37.55;101356.53;4192349;28;20052;-62
2022/09/28 00:31:37;;;;;;;3.95;1.20;;;;;;;24.93;37.05;101361.03;4190960;28;20033;-62
2022/09/28 00:33:41;;;;;;;4.97;1.20;;;;;;;24.93;37.34;101363.84;4189026;28;20099;-62
2022/09/28 00:35:43;;;;;;;1.73;1.27;;;;;;;24.92;37.21;101367.75;4197375;28;20097;-62
2022/09/28 00:37:44;;;;;;;2.45;1.33;;;;;;;24.90;37.09;101370.03;4195691;28;20037;-62
2022/09/28 00:39:50;;;;;;;4.82;1.83;;;;;;;24.89;37.13;101363.59;4182252;28;20106;-62
2022/09/28 00:41:52;;;;;;;3.10;1.55;;;;;;;24.89;36.74;101368.38;4182761;28;20438;-62
2022/09/28 00:44:25;;;;;;;2.67;1.40;;;;;;;24.84;36.74;101386.88;4182626;28;20484;-62
2022/09/28 00:46:35;;;;;;;3.28;1.38;;;;;;;24.86;36.73;101378.19;4181625;28;20095;-62
2022/09/28 00:48:40;;;;;;;1.80;1.38;;;;;;;24.83;36.67;101379.63;4192436;28;20040;-62
2022/09/28 00:50:42;;;;;;;2.15;1.48;;;;;;;24.83;36.11;101388.03;4197694;28;20076;-62
2022/09/28 00:52:46;;;;;;;2.33;1.50;;;;;;;24.85;35.94;101388.53;4195524;28;20040;-62
2022/09/28 00:54:52;;;;;;;2.80;1.35;;;;;;;24.84;36.03;101388.84;4197715;28;20090;-62
2022/09/28 00:56:53;;;;;;;1.80;1.38;;;;;;;24.82;36.41;101391.94;4187890;28;20517;-62
2022/09/28 00:58:58;;;;;;;2.08;1.70;;;;;;;24.81;36.05;101395.84;4183918;28;20045;-62
2022/09/28 01:00:59;;;;;;;4.68;1.67;;;;;;;24.78;35.93;101393.66;4182173;28;20037;-62
2022/09/28 01:03:02;;;;;;;2.90;1.33;;;;;;;24.80;35.96;101401.75;4182529;28;20036;-62
2022/09/28 01:05:06;;;;;;;2.97;1.08;;;;;;;24.59;35.65;101376.78;4181826;28;20446;-62
2022/09/28 01:07:11;;;;;;;2.65;1.45;;;;;;;24.75;35.07;101404.63;4180219;28;20037;-62
2022/09/28 01:09:12;;;;;;;;;;;;;;;24.77;35.04;101417.16;4191885;28;20049;-62
2022/09/28 01:11:14;;;;;;;4.03;2.20;;;;;;;24.84;34.92;101423.28;4185808;28;20351;-62
2022/09/28 01:13:16;;;;;;;2.58;1.40;;;;;;;24.84;34.43;101412.06;4197279;28;20074;-62
2022/09/28 01:15:20;;;;;;;5.18;1.50;;;;;;;24.63;34.03;101382.63;4195553;28;20029;-63
2022/09/28 01:17:32;;;;;;;2.53;1.80;;;;;;;24.79;34.77;101409.34;4189981;28;20040;-63
2022/09/28 01:19:55;;;;;;;2.72;1.52;;;;;;;24.77;34.70;101428.38;4192505;28;20438;-62
2022/09/28 01:22:05;;;;;;;3.63;1.55;;;;;;;24.78;34.26;101430.03;4183083;28;20028;-63
2022/09/28 01:24:22;;;;;;;2.08;1.48;;;;;;;24.78;34.78;101429.19;4189057;28;20082;-62
2022/09/28 01:26:46;;;;;;;2.80;1.33;;;;;;;24.76;34.29;101431.47;4183250;28;20045;-62
2022/09/28 01:28:53;;;;;;;2.10;1.40;;;;;;;24.74;34.43;101437.38;4185678;28;20065;-62
2022/09/28 01:31:12;;;;;;;1.75;1.48;;;;;;;24.64;34.15;101419.84;4194610;28;20094;-62
2022/09/28 01:33:21;;;;;;;1.65;1.33;;;;;;;24.46;34.13;101393.41;4195269;28;20094;-62
2022/09/28 01:35:26;;;;;;;2.83;1.48;;;;;;;24.75;34.18;101435.41;4186025;28;20032;-62
2022/09/28 01:37:35;;;;;;;2.20;1.30;;;;;;;24.73;33.62;101430.09;4196984;28;20048;-62
2022/09/28 01:39:44;;;;;;;2.15;1.67;;;;;;;24.71;33.71;101437.13;4183328;28;20098;-62
2022/09/28 01:41:51;;;;;;;3.03;2.63;;;;;;;24.66;33.82;101425.97;4180563;28;20041;-62
2022/09/28 01:44:01;;;;;;;5.55;2.63;;;;;;;24.74;35.41;101433.72;4181125;28;20460;-62
2022/09/28 01:46:28;;;;;;;2.45;1.60;;;;;;;24.60;35.43;101419.56;4186029;28;20044;-61
2022/09/28 01:48:38;;;;;;;2.03;1.35;;;;;;;24.56;35.58;101407.34;4180587;28;20045;-62
2022/09/28 01:50:43;;;;;;;1.60;1.50;;;;;;;24.55;35.50;101405.63;4181283;28;20442;-62
2022/09/28 01:52:56;;;;;;;2.58;1.40;;;;;;;24.60;36.00;101422.38;4195403;28;20049;-62
2022/09/28 01:55:06;;;;;;;2.40;1.70;;;;;;;24.77;35.68;101450.75;4195470;28;20482;-62
2022/09/28 01:57:45;;;;;;;3.97;1.90;;;;;;;24.79;36.00;101451.31;4190135;28;20090;-62
2022/09/28 02:00:00;;;;;;;2.13;1.40;;;;;;;24.68;35.78;101430.13;4162613;28;20136;-62
2022/09/28 02:02:11;;;;;;;4.15;2.28;;;;;;;24.83;36.16;101455.19;4192186;28;20514;-61
2022/09/28 02:04:23;;;;;;;3.03;1.88;;;;;;;24.66;35.95;101432.41;4195861;28;20484;-62
2022/09/28 02:06:37;;;;;;;3.33;1.58;;;;;;;24.84;35.95;101468.06;4197188;28;20045;-61
2022/09/28 02:08:45;;;;;;;3.95;1.75;;;;;;;24.84;35.86;101468.06;4193152;28;20098;-61
2022/09/28 02:10:52;;;;;;;3.83;1.85;;;;;;;24.82;36.26;101461.91;4195446;28;20443;-61
2022/09/28 02:13:18;;;;;;;2.22;1.60;;;;;;;24.83;36.43;101469.19;4185995;28;20099;-62
2022/09/28 02:15:22;;;;;;;;;;;;;;;24.85;36.40;101466.09;4192270;28;20040;-62
2022/09/28 02:17:23;;;;;;;2.97;1.70;;;;;;;24.92;36.40;101471.31;4196773;28;19916;-62
2022/09/28 02:19:32;;;;;;;3.00;1.73;;;;;;;24.92;36.34;101474.13;4198053;28;20507;-62
2022/09/28 02:21:52;;;;;;;2.50;1.73;;;;;;;24.88;36.50;101475.84;4199309;28;20454;-62
2022/09/28 02:24:05;;;;;;;2.55;1.83;;;;;;;24.84;36.73;101479.25;4186661;28;20052;-61
2022/09/28 02:26:11;;;;;;;2.33;1.40;;;;;;;24.88;36.92;101485.09;4183764;28;20075;-61
2022/09/28 02:28:13;;;;;;;3.17;1.42;;;;;;;24.81;36.64;101473.41;4191021;28;20036;-62
2022/09/28 02:30:16;;;;;;;2.63;1.63;;;;;;;24.88;37.03;101495.44;4183274;28;20033;-61
2022/09/28 02:32:19;;;;;;;2.00;1.42;;;;;;;24.69;36.96;101468.19;4191334;28;20037;-61
2022/09/28 02:34:20;;;;;;;2.58;1.75;;;;;;;24.85;37.05;101492.13;4192553;28;20044;-61
2022/09/28 02:36:24;;;;;;;2.33;1.50;;;;;;;24.87;37.19;101493.78;4199519;28;20044;-61
2022/09/28 02:38:25;;;;;;;1.95;1.48;;;;;;;24.79;37.27;101493.31;4193774;28;20099;-61
2022/09/28 02:40:32;;;;;;;2.40;1.55;;;;;;;24.87;37.14;101499.38;4183101;28;20095;-61
2022/09/28 02:42:43;;;;;;;2.30;1.60;;;;;;;24.87;37.50;101511.41;4184990;28;20049;-61
2022/09/28 02:45:06;;;;;;;8.23;1.55;;;;;;;24.86;37.60;101504.16;4191796;28;20110;-61
2022/09/28 02:47:15;;;;;;;2.15;1.40;;;;;;;24.89;37.52;101508.34;4183254;28;20040;-61
2022/09/28 02:49:29;;;;;;;3.97;1.50;;;;;;;24.91;37.41;101506.06;4194254;28;20048;-60
2022/09/28 02:51:50;;;;;;;1.83;1.50;;;;;;;24.91;37.50;101512.50;4182761;28;20041;-61
2022/09/28 02:54:08;;;;;;;2.70;1.33;;;;;;;24.91;37.46;101511.66;4188157;28;20048;-61
2022/09/28 02:56:25;;;;;;;2.30;1.40;;;;;;;24.84;37.71;101510.03;4199380;28;20078;-62
2022/09/28 02:59:20;;;;;;;1.33;1.23;;;;;;;24.89;37.65;101530.72;4186297;28;20447;-60
2022/09/28 03:01:59;;;;;;;1.90;1.50;;;;;;;24.91;37.44;101528.47;4115991;28;20106;-61
2022/09/28 03:04:06;;;;;;;2.53;1.50;;;;;;;24.93;37.64;101529.00;4183125;28;20476;-62
2022/09/28 03:06:19;;;;;;;3.08;2.15;;;;;;;24.91;37.98;101525.66;4182386;28;20037;-61
2022/09/28 03:08:46;;;;;;;2.45;1.65;;;;;;;24.89;38.07;101525.97;4182617;28;20041;-62
2022/09/28 03:11:17;;;;;;;2.42;1.40;;;;;;;24.94;37.89;101528.72;4182534;28;20480;-62
2022/09/28 03:13:18;;;;;;;3.05;1.30;;;;;;;24.93;37.94;101535.44;4196829;28;20044;-62
2022/09/28 03:15:34;;;;;;;3.15;1.55;;;;;;;24.93;37.85;101531.81;4184322;28;20033;-62
2022/09/28 03:17:38;;;;;;;1.25;1.13;;;;;;;24.82;37.90;101517.88;4197086;28;20583;-62
2022/09/28 03:19:40;;;;;;;3.30;1.30;;;;;;;24.93;38.06;101532.66;4213623;28;20040;-61
2022/09/28 03:21:44;;;;;;;2.72;1.48;;;;;;;24.95;38.00;101537.94;4182426;28;20029;-63
2022/09/28 03:23:46;;;;;;;3.17;1.27;;;;;;;24.94;38.23;101536.28;4181984;28;20427;-62
2022/09/28 03:25:47;;;;;;;1.60;1.38;;;;;;;24.92;38.34;101535.72;4181762;28;20041;-62
2022/09/28 03:27:52;;;;;;;2.22;1.40;;;;;;;24.94;38.14;101544.69;4182414;28;20033;-62
2022/09/28 03:29:53;;;;;;;5.40;1.57;;;;;;;24.85;38.19;101525.72;4190886;28;20164;-62
2022/09/28 03:31:54;;;;;;;2.38;1.38;;;;;;;24.97;38.26;101544.06;4191634;28;20274;-62
2022/09/28 03:33:55;;;;;;;1.60;1.13;;;;;;;24.96;38.48;101548.00;4194473;28;20052;-62
2022/09/28 03:35:57;;;;;;;1.70;1.58;;;;;;;24.93;38.26;101548.59;4197507;28;20446;-62
2022/09/28 03:37:58;;;;;;;3.70;1.30;;;;;;;24.97;38.50;101552.47;4197539;28;20086;-62
2022/09/28 03:39:59;;;;;;;2.17;1.10;;;;;;;24.97;38.55;101546.88;4198616;28;20094;-62
2022/09/28 03:42:07;;;;;;;1.65;1.10;;;;;;;24.88;38.32;101543.91;4198359;28;20086;-62
2022/09/28 03:44:14;;;;;;;1.55;1.20;;;;;;;24.94;38.41;101550.28;4198615;28;20454;-62
2022/09/28 03:46:16;;;;;;;3.10;1.33;;;;;;;24.93;38.55;101554.22;4198271;28;20098;-62
2022/09/28 03:48:23;;;;;;;1.63;0.98;;;;;;;24.96;38.28;101562.84;4197111;28;20090;-61
2022/09/28 03:50:24;;;;;;;1.27;1.17;;;;;;;24.98;38.41;101562.56;4195262;28;20078;-62
2022/09/28 03:52:31;;;;;;;1.95;1.23;;;;;;;24.90;38.16;101554.78;4194389;28;20071;-62
2022/09/28 03:54:32;;;;;;;2.25;1.00;;;;;;;24.98;38.53;101551.38;4182558;28;20111;-63
2022/09/28 03:56:33;;;;;;;1.33;1.13;;;;;;;24.99;38.09;101572.63;4181304;28;20124;-62
2022/09/28 03:58:35;;;;;;;1.92;1.20;;;;;;;24.99;38.30;101578.22;4189309;28;20075;-62
2022/09/28 04:00:39;;;;;;;3.28;1.35;;;;;;;24.97;38.47;101577.66;4184747;28;20091;-62
2022/09/28 04:02:43;;;;;;;1.88;1.00;;;;;;;25.01;38.24;101584.34;4191088;28;20044;-62
2022/09/28 04:04:44;;;;;;;6.72;1.75;;;;;;;25.01;38.25;101578.75;4198243;28;20082;-62
2022/09/28 04:06:45;;;;;;;3.67;1.25;;;;;;;25.01;38.54;101578.75;4186286;28;20037;-62
2022/09/28 04:08:46;;;;;;;2.05;1.00;;;;;;;25.01;38.65;101573.16;4182940;28;20045;-62
2022/09/28 04:10:48;;;;;;;1.40;1.10;;;;;;;25.02;38.52;101586.03;4181838;28;20099;-62
2022/09/28 04:12:52;;;;;;;3.40;1.20;;;;;;;25.00;38.55;101589.13;4181549;28;20041;-62
2022/09/28 04:14:53;;;;;;;1.17;1.08;;;;;;;24.91;38.70;101578.84;4181872;28;20484;-62
2022/09/28 04:16:55;;;;;;;2.10;1.00;;;;;;;25.02;38.75;101597.25;4181139;28;20423;-62
2022/09/28 04:18:59;;;;;;;1.80;1.20;;;;;;;24.94;38.98;101578.28;4202290;28;20101;-62
2022/09/28 04:21:17;;;;;;;1.60;1.17;;;;;;;25.03;38.61;101590.50;4215163;28;20081;-62
2022/09/28 04:23:21;;;;;;;1.25;1.15;;;;;;;25.06;38.89;101593.56;4214367;28;20322;-62
2022/09/28 04:25:26;;;;;;;2.33;1.50;;;;;;;25.07;38.60;101594.41;4198023;28;20040;-62
2022/09/28 04:29:50;;;;;;;1.10;1.00;;;;;;;25.02;38.89;101580.44;4198226;28;20177;-62
2022/09/28 04:31:58;;;;;;;1.58;1.00;;;;;;;25.01;38.80;101587.16;4197309;28;20161;-62
2022/09/28 04:34:02;;;;;;;1.20;1.10;;;;;;;25.07;38.64;101594.41;4197828;28;20094;-62
2022/09/28 04:36:08;;;;;;;0.90;0.77;;;;;;;25.07;38.85;101592.47;4197404;28;20048;-62
2022/09/28 04:38:12;;;;;;;2.58;0.80;;;;;;;25.07;38.63;101586.88;4197793;28;20438;-62
2022/09/28 04:40:13;;;;;;;2.00;1.10;;;;;;;25.07;38.72;101594.41;4197629;28;20037;-62
2022/09/28 04:42:14;;;;;;;1.75;0.88;;;;;;;25.07;39.02;101594.41;4197345;28;20041;-61
2022/09/28 04:44:16;;;;;;;0.75;0.75;;;;;;;24.78;38.93;101553.19;4197812;28;20475;-62
2022/09/28 04:46:23;;;;;;;2.55;0.98;;;;;;;25.06;38.94;101598.31;4185953;28;20029;-62
2022/09/28 04:48:28;;;;;;;1.15;0.88;;;;;;;25.07;38.86;101600.00;4181089;28;20075;-62
2022/09/28 04:50:29;;;;;;;2.53;1.08;;;;;;;25.07;38.83;101600.88;4197362;28;20098;-62
2022/09/28 04:52:30;;;;;;;4.05;1.08;;;;;;;25.08;39.01;101601.69;4197491;28;20028;-62
2022/09/28 04:54:32;;;;;;;1.30;1.00;;;;;;;25.07;39.03;101605.59;4200442;28;20041;-62
2022/09/28 04:56:33;;;;;;;1.30;1.10;;;;;;;25.06;38.87;101593.56;4214163;28;20097;-62
2022/09/28 04:58:38;;;;;;;2.85;0.90;;;;;;;24.94;39.07;101584.69;4214182;28;20105;-62
2022/09/28 05:00:39;;;;;;;1.10;1.00;;;;;;;25.07;38.98;101600.00;4214201;28;20036;-62
2022/09/28 05:02:46;;;;;;;1.10;1.00;;;;;;;25.07;39.12;101611.19;4196542;28;20485;-62
2022/09/28 05:04:47;;;;;;;1.50;0.85;;;;;;;25.05;39.26;101608.69;4181148;28;20098;-62
2022/09/28 05:06:51;;;;;;;1.23;1.00;;;;;;;25.07;38.99;101611.19;4188545;28;20434;-62
2022/09/28 05:08:56;;;;;;;1.27;1.15;;;;;;;25.06;38.95;101612.31;4197089;28;20070;-62
2022/09/28 05:10:59;;;;;;;1.20;1.10;;;;;;;25.08;39.38;101618.50;4180334;28;20094;-62
2022/09/28 05:13:01;;;;;;;1.00;0.88;;;;;;;25.09;39.17;101625.75;4180643;28;20571;-62
2022/09/28 05:15:03;;;;;;;1.75;0.90;;;;;;;25.08;39.31;101618.50;4184211;28;20087;-62
2022/09/28 05:17:04;;;;;;;1.00;0.95;;;;;;;25.08;39.27;101612.91;4193373;28;19916;-62
2022/09/28 05:19:05;;;;;;;1.10;0.98;;;;;;;25.08;39.08;101612.91;4194069;28;20059;-62
2022/09/28 05:21:14;;;;;;;1.10;1.00;;;;;;;25.07;39.03;101614.00;4192795;28;20443;-62
2022/09/28 05:23:16;;;;;;;1.10;0.90;;;;;;;25.04;38.95;101607.00;4196216;28;20032;-62
2022/09/28 05:25:18;;;;;;;1.20;0.77;;;;;;;25.07;39.20;101612.06;4197178;28;20041;-62
2022/09/28 05:27:20;;;;;;;1.17;1.00;;;;;;;25.07;38.99;101614.88;4197258;28;20037;-62
2022/09/28 05:29:21;;;;;;;1.17;0.90;;;;;;;25.08;39.23;101618.50;4196160;28;20040;-62
2022/09/28 05:31:23;;;;;;;1.45;0.90;;;;;;;25.04;39.36;101608.97;4197736;28;20403;-62
2022/09/28 05:33:24;;;;;;;2.10;1.15;;;;;;;25.07;39.03;101614.00;4183412;28;20795;-62
2022/09/28 05:35:29;;;;;;;1.55;0.90;;;;;;;25.06;39.16;101615.09;4180798;28;20546;-62
2022/09/28 05:37:30;;;;;;;0.73;0.70;;;;;;;25.07;39.36;101622.41;4180976;28;20146;-62
2022/09/28 05:39:31;;;;;;;1.40;0.95;;;;;;;25.07;39.16;101630.81;4180761;28;20037;-62
2022/09/28 05:41:35;;;;;;;1.05;0.85;;;;;;;25.08;39.36;101629.69;4180236;28;20117;-62
2022/09/28 05:43:37;;;;;;;0.60;0.60;;;;;;;25.06;39.03;101623.50;4181055;28;20411;-62
2022/09/28 05:45:39;;;;;;;2.58;0.90;;;;;;;25.04;39.21;101629.41;4181090;28;20461;-62
2022/09/28 05:47:46;;;;;;;3.85;1.08;;;;;;;24.91;39.11;101607.69;4181781;28;20155;-62
2022/09/28 05:49:48;;;;;;;0.98;0.90;;;;;;;25.05;39.25;101630.25;4183832;28;20098;-62
2022/09/28 05:51:52;;;;;;;1.00;0.77;;;;;;;25.07;39.22;101628.88;4183605;28;20037;-62
2022/09/28 05:53:57;;;;;;;1.10;0.70;;;;;;;25.07;39.29;101628.00;4184658;28;20079;-62
2022/09/28 05:55:58;;;;;;;;;;;;;;;25.05;39.47;101636.69;4184014;28;20098;-62
2022/09/28 05:58:02;;;;;;;1.30;1.00;;;;;;;25.08;39.23;101626.91;4184360;28;19966;-62
2022/09/28 06:00:09;;;;;;;1.03;0.77;;;;;;;25.04;39.45;101620.19;4183696;28;20095;-62
2022/09/28 06:02:10;;;;;;;0.90;0.70;;;;;;;24.89;39.44;101600.72;4182582;28;20083;-62
2022/09/28 06:04:15;;;;;;;0.85;0.85;;;;;;;24.98;39.22;101621.34;4184381;28;20037;-62
2022/09/28 06:06:16;;;;;;;1.45;0.77;;;;;;;25.06;39.46;101637.50;4184044;28;20033;-62
2022/09/28 06:08:18;;;;;;;0.80;0.80;;;;;;;25.03;39.26;101621.31;4184409;28;20102;-62
2022/09/28 06:10:19;;;;;;;0.90;0.70;;;;;;;25.08;39.44;101640.91;4194678;28;20374;-62
2022/09/28 06:12:20;;;;;;;0.95;0.75;;;;;;;25.07;39.53;101634.47;4183427;28;20094;-62
2022/09/28 06:14:25;;;;;;;1.60;0.70;;;;;;;25.03;39.37;101627.75;4183525;28;20037;-62
2022/09/28 06:16:26;;;;;;;0.82;0.70;;;;;;;24.94;39.39;101611.88;4182623;28;20045;-61
2022/09/28 06:18:27;;;;;;;0.90;0.90;;;;;;;24.83;39.25;101602.69;4183685;28;20029;-62
2022/09/28 06:20:31;;;;;;;0.95;0.88;;;;;;;25.06;39.53;101637.50;4183828;28;20094;-62
2022/09/28 06:22:33;;;;;;;0.88;0.73;;;;;;;24.97;39.34;101616.88;4185128;28;20040;-62
2022/09/28 06:24:34;;;;;;;1.27;0.80;;;;;;;25.05;39.15;101636.69;4199141;28;20086;-62
2022/09/28 06:26:35;;;;;;;1.10;0.77;;;;;;;25.05;39.54;101631.06;4199763;28;20110;-62
2022/09/28 06:28:36;;;;;;;0.68;0.63;;;;;;;24.88;39.38;101607.41;4184145;28;20442;-62
2022/09/28 06:30:39;;;;;;;1.20;0.90;;;;;;;25.06;39.45;101637.50;4183508;28;20106;-62
2022/09/28 06:32:40;;;;;;;1.65;0.90;;;;;;;25.04;39.61;101631.38;4183317;28;20110;-62
2022/09/28 06:34:42;;;;;;;0.90;0.80;;;;;;;25.04;39.65;101632.22;4183242;28;20071;-62
2022/09/28 06:36:43;;;;;;;1.52;1.08;;;;;;;25.04;39.55;101634.19;4185104;28;20495;-62
2022/09/28 06:38:48;;;;;;;0.85;0.80;;;;;;;25.03;39.62;101629.72;4183928;28;20091;-62
2022/09/28 06:40:49;;;;;;;1.20;0.68;;;;;;;24.38;39.63;101526.38;4206254;28;20040;-62
2022/09/28 06:43:08;;;;;;;1.02;0.90;;;;;;;24.87;39.21;101603.78;4216060;28;20028;-62
2022/09/28 06:45:10;;;;;;;0.80;0.70;;;;;;;25.04;39.28;101635.00;4198699;28;20423;-62
2022/09/28 06:47:11;;;;;;;1.10;0.90;;;;;;;25.05;39.53;101633.03;4186541;28;20095;-62
2022/09/28 06:49:15;;;;;;;0.73;0.60;;;;;;;25.04;39.30;101688.22;4186704;28;20037;-63
2022/09/28 06:51:19;;;;;;;2.35;0.75;;;;;;;25.04;39.53;101650.97;4187659;28;20094;-62
2022/09/28 06:53:22;;;;;;;0.80;0.80;;;;;;;24.97;39.51;101639.25;4196641;28;20036;-62
2022/09/28 06:55:23;;;;;;;0.65;0.63;;;;;;;24.90;39.56;101627.56;4191569;28;20761;-62
2022/09/28 06:57:27;;;;;;;1.83;0.85;;;;;;;24.88;39.57;101619.47;4196982;28;20037;-62
2022/09/28 06:59:30;;;;;;;1.00;0.87;;;;;;;25.05;39.74;101644.25;4187437;28;20041;-62
2022/09/28 07:01:31;;;;;;;0.70;0.70;;;;;;;25.05;39.63;101647.03;4182172;28;20342;-62
2022/09/28 07:03:32;;;;;;;1.08;0.80;;;;;;;25.04;39.59;101657.41;4182222;28;20481;-62
2022/09/28 07:05:35;;;;;;;1.00;0.80;;;;;;;25.04;39.51;101651.81;4190953;28;20486;-62
2022/09/28 07:07:37;;;;;;;0.98;0.80;;;;;;;25.04;39.52;101648.19;4199363;28;20091;-62
2022/09/28 07:09:38;;;;;;;1.58;0.70;;;;;;;24.98;39.42;101644.59;4188300;28;20044;-62
2022/09/28 07:11:39;;;;;;;1.02;0.73;;;;;;;25.04;39.76;101653.78;4197305;28;20840;-62
2022/09/28 07:13:41;;;;;;;0.93;0.68;;;;;;;24.97;39.84;101648.53;4189254;28;20045;-62
2022/09/28 07:15:42;;;;;;;0.70;0.70;;;;;;;25.02;39.77;101661.66;4189966;28;20048;-62
2022/09/28 07:17:47;;;;;;;1.30;0.70;;;;;;;25.02;39.85;101656.06;4197157;28;20037;-62
2022/09/28 07:19:51;;;;;;;1.23;0.90;;;;;;;24.99;39.48;101659.44;4198455;28;20052;-62
2022/09/28 07:21:52;;;;;;;1.45;0.70;;;;;;;24.91;39.66;101658.06;4188249;28;20037;-62
2022/09/28 07:23:54;;;;;;;0.70;0.70;;;;;;;25.02;39.58;101664.44;4182218;28;20796;-62
2022/09/28 07:25:57;;;;;;;1.33;0.77;;;;;;;25.02;39.77;101664.44;4185013;28;20075;-62
2022/09/28 07:27:59;;;;;;;0.80;0.70;;;;;;;25.03;39.41;101666.13;4188312;28;20048;-62
2022/09/28 07:30:00;;;;;;;0.70;0.60;;;;;;;25.00;39.41;101666.69;4180746;28;20045;-62
2022/09/28 07:32:02;;;;;;;0.70;0.70;;;;;;;25.02;39.73;101667.25;4181373;28;20102;-62
2022/09/28 07:34:03;;;;;;;1.27;0.80;;;;;;;24.99;39.74;101667.81;4195470;28;20380;-61
2022/09/28 07:36:06;;;;;;;1.02;0.80;;;;;;;25.00;39.77;101664.72;4181598;28;20055;-62
2022/09/28 07:38:09;;;;;;;0.70;0.70;;;;;;;24.97;39.77;101658.84;4183740;28;20368;-62
2022/09/28 07:42:35;;;;;;;0.77;0.60;;;;;;;25.01;39.59;101663.59;4194114;28;20098;-62
2022/09/28 07:44:39;;;;;;;1.25;0.80;;;;;;;25.01;39.62;101674.78;4186519;28;20048;-62
2022/09/28 07:46:43;;;;;;;1.17;0.63;;;;;;;25.00;39.43;101673.13;4196791;28;20049;-62
2022/09/28 07:48:50;;;;;;;1.90;0.87;;;;;;;24.94;39.51;101663.09;4189904;28;20075;-62
2022/09/28 07:50:56;;;;;;;1.35;1.00;;;;;;;25.00;39.71;101684.31;4182439;28;20274;-62
2022/09/28 07:52:59;;;;;;;0.70;0.70;;;;;;;25.01;39.72;101679.56;4181021;28;20041;-62
2022/09/28 07:55:01;;;;;;;0.80;0.68;;;;;;;25.01;39.77;101679.56;4180866;28;20207;-62
2022/09/28 07:57:05;;;;;;;0.68;0.60;;;;;;;24.84;39.65;101658.41;4193010;28;20122;-62
2022/09/28 07:59:07;;;;;;;0.95;0.65;;;;;;;24.90;39.84;101661.16;4181488;28;20099;-62
2022/09/28 08:01:10;;;;;;;0.85;0.57;;;;;;;24.99;39.53;101679.03;4185778;28;20086;-62
2022/09/28 08:03:16;;;;;;;1.27;0.80;;;;;;;24.96;39.52;101680.44;4197953;28;20106;-62
2022/09/28 08:05:18;;;;;;;0.73;0.73;;;;;;;24.99;39.74;101676.22;4189890;28;20099;-62
2022/09/28 08:07:21;;;;;;;0.70;0.70;;;;;;;24.96;39.55;101672.03;4183115;28;20041;-62
2022/09/28 08:09:23;;;;;;;1.05;0.75;;;;;;;24.99;39.65;101682.66;4193199;28;20166;-62
2022/09/28 08:11:24;;;;;;;0.65;0.60;;;;;;;24.99;39.79;101684.63;4189298;28;20029;-62
2022/09/28 08:13:31;;;;;;;0.75;0.73;;;;;;;24.97;39.59;101678.47;4187323;28;20049;-62
2022/09/28 08:15:37;;;;;;;0.95;0.63;;;;;;;24.91;39.44;101674.88;4185806;28;20037;-62
2022/09/28 08:17:38;;;;;;;0.88;0.55;;;;;;;24.97;39.51;101684.94;4198499;28;20041;-62
2022/09/28 08:22:01;;;;;;;0.80;0.80;;;;;;;24.98;39.49;101696.97;4183305;28;20103;-62
2022/09/28 08:24:03;;;;;;;0.60;0.60;;;;;;;24.97;39.47;101695.25;4187360;28;20450;-62
2022/09/28 08:26:07;;;;;;;0.57;0.57;;;;;;;24.97;39.41;101701.72;4192766;28;20099;-62
2022/09/28 08:28:08;;;;;;;0.45;0.45;;;;;;;24.96;39.42;101699.19;4190117;28;20041;-61
2022/09/28 08:30:10;;;;;;;0.70;0.60;;;;;;;24.88;39.81;101685.81;4181689;28;20071;-62
2022/09/28 08:32:11;;;;;;;1.05;0.60;;;;;;;24.96;39.83;101704.78;4188332;28;20070;-61
2022/09/28 08:34:16;;;;;;;0.73;0.70;;;;;;;24.97;39.70;101706.47;4198265;28;20476;-62
2022/09/28 08:36:17;;;;;;;0.68;0.40;;;;;;;24.84;39.44;101686.41;4198191;28;20098;-62
2022/09/28 08:38:21;;;;;;;0.90;0.60;;;;;;;24.72;39.56;101663.53;4198084;28;20541;-62
2022/09/28 08:40:24;;;;;;;0.50;0.50;;;;;;;24.96;39.57;101710.41;4198221;28;20091;-62
2022/09/28 08:42:33;;;;;;;0.90;0.60;;;;;;;24.96;39.83;101707.59;4197421;28;20468;-62
2022/09/28 08:45:06;;;;;;;0.70;0.70;;;;;;;24.92;39.33;101710.13;4190934;28;20045;-62
2022/09/28 08:49:46;;;;;;;0.70;0.60;;;;;;;24.96;39.58;101721.59;4198107;28;20086;-62
2022/09/28 08:52:04;;;;;;;0.70;0.68;;;;;;;24.94;39.53;101719.09;4197661;28;20438;-62
2022/09/28 08:54:41;;;;;;;0.50;0.50;;;;;;;24.89;39.74;101710.72;4198122;28;20102;-62
2022/09/28 08:56:48;;;;;;;0.77;0.70;;;;;;;24.96;39.64;101721.59;4197748;28;20484;-62
2022/09/28 08:58:57;;;;;;;1.17;0.82;;;;;;;24.70;39.48;101682.56;4183435;28;20546;-61
2022/09/28 09:01:01;;;;;;;1.50;0.60;;;;;;;24.96;39.57;101730.00;4184224;28;20037;-63
2022/09/28 09:03:08;;;;;;;0.80;0.70;;;;;;;24.96;39.71;101728.03;4193782;28;20094;-62
2022/09/28 09:05:13;;;;;;;0.60;0.50;;;;;;;24.68;39.57;101676.41;4183639;28;20094;-63
2022/09/28 09:07:36;;;;;;;0.85;0.60;;;;;;;24.89;39.48;101709.91;4180525;28;20506;-62
2022/09/28 09:09:59;;;;;;;1.27;0.70;;;;;;;24.95;39.57;101719.94;4180738;28;20399;-63
2022/09/28 09:12:31;;;;;;;0.70;0.70;;;;;;;24.89;39.44;101715.50;4180083;28;20048;-62
2022/09/28 09:15:27;;;;;;;0.60;0.60;;;;;;;24.95;39.42;101719.94;4187930;28;20174;-62
2022/09/28 09:18:02;;;;;;;0.75;0.50;;;;;;;24.96;39.58;101716.00;4125736;28;20100;-62
2022/09/28 09:20:15;;;;;;;0.70;0.70;;;;;;;24.96;39.71;101722.44;4180630;28;20476;-62
2022/09/28 09:22:59;;;;;;;0.82;0.70;;;;;;;24.91;39.69;101725.25;4196168;28;20053;-62
2022/09/28 09:25:18;;;;;;;0.93;0.60;;;;;;;24.94;39.62;101724.69;4150484;28;20098;-62
2022/09/28 09:27:37;;;;;;;1.63;0.45;;;;;;;24.93;39.80;101727.78;4180313;28;20431;-62
2022/09/28 09:29:59;;;;;;;0.55;0.55;;;;;;;24.82;39.70;101711.03;4195996;28;20048;-62
2022/09/28 09:32:31;;;;;;;0.73;0.63;;;;;;;24.90;39.69;101722.75;4188632;28;20052;-62
2022/09/28 09:34:51;;;;;;;0.63;0.63;;;;;;;24.80;39.74;101715.25;4180371;28;20099;-62
2022/09/28 09:37:29;;;;;;;0.70;0.60;;;;;;;24.88;39.83;101731.47;4180339;28;20045;-62
2022/09/28 09:39:50;;;;;;;0.98;0.70;;;;;;;24.90;39.60;101746.00;4180848;28;20454;-62
2022/09/28 09:42:25;;;;;;;1.00;0.60;;;;;;;24.90;39.81;101733.97;4180275;28;20095;-62
2022/09/28 09:44:27;;;;;;;1.02;0.65;;;;;;;24.92;39.52;101737.28;4181126;28;20040;-62
2022/09/28 09:46:43;;;;;;;1.20;0.70;;;;;;;24.91;39.97;101735.63;4192084;28;20098;-63
2022/09/28 09:48:52;;;;;;;1.05;0.85;;;;;;;24.89;39.89;101733.13;4184328;28;20041;-62
2022/09/28 09:50:59;;;;;;;2.47;0.60;;;;;;;24.89;39.90;101743.50;4180857;28;20045;-62
2022/09/28 09:53:32;;;;;;;0.70;0.60;;;;;;;24.87;39.49;101745.72;4194895;28;20554;-62
2022/09/28 09:55:45;;;;;;;0.70;0.50;;;;;;;24.88;39.61;101747.38;4194619;28;20097;-61
2022/09/28 09:58:11;;;;;;;0.63;0.52;;;;;;;24.85;39.57;101754.41;4194898;28;20434;-62
2022/09/28 10:00:16;;;;;;;;;;;;;;;24.87;39.84;101757.75;4183182;28;20029;-62
2022/09/28 10:02:24;;;;;;;1.25;0.75;;;;;;;24.92;39.49;101756.91;4189323;28;19978;-61